Weather History for KMCD - January, 2013

Change the Weather History Date:

Friday, January 18, 2013

  Actual Average Record
Temperature  
Mean Temperature 18 °F -  
Max Temperature 25 °F 21 °F 40 °F (1980)
Min Temperature 12 °F 10 °F -14 °F (1997)
Degree Days  
Heating Degree Days 46    
Moisture  
Dew Point 11 °F    
Average Humidity 78    
Maximum Humidity 93    
Minimum Humidity 54    
Precipitation  
Precipitation 0.01 in - - ()
Sea Level Pressure  
Sea Level Pressure 30.04 in    
Wind  
Wind Speed 12 mph (SSW)    
Max Wind Speed 17 mph    
Max Gust Speed 25 mph    
Visibility 7 miles    
Events Snow    
Averages and records for this station are not official NWS values.
T = Trace of Precipitation, MM = Missing Value Source: NWS Daily Summary

Daily Weather History Graph

Daily Weather History Graph

Search for Another Location

Airport or City:

Trip Planner

Search our weather history database for the weather conditions in past years. The results will help you decide how hot, cold, wet, or windy it might be!

Date:

Astronomy

Jan. 18, 2013 Rise Set
Actual Time 8:13 AM EST 5:24 PM EST
Civil Twilight 7:40 AM EST 5:57 PM EST
Nautical Twilight 7:04 AM EST 6:34 PM EST
Astronomical Twilight 6:28 AM EST 7:10 PM EST
Moon 11:25 AM EST (1/18) 12:39 AM EST (1/18)
Length of Visible Light 10h 17m
Length of Day
9h 10m
Waxing Crescent, 47% of the Moon is Illuminated
Jan 18
Waxing Crescent
Jan 18
First Quarter
Jan 26
Full
Feb 3
Last Quarter
Feb 10
New

Hourly Weather History & Observations

Time (EST) Temp. Windchill Dew Point Humidity Pressure Visibility Wind Dir Wind Speed Gust Speed Precip Events Conditions
12:14 AM 12.6 °F -4.4 °F 3.4 °F 67% 30.23 in 10.0 mi West 17.3 mph 25.3 mph N/A   Scattered Clouds
12:34 AM 12.4 °F -4.6 °F 3.2 °F 67% 30.23 in 10.0 mi WNW 17.3 mph 24.2 mph N/A   Scattered Clouds
12:55 AM 12.2 °F -3.7 °F 3.9 °F 69% 30.24 in 10.0 mi West 15.0 mph 21.9 mph N/A   Scattered Clouds
1:14 AM 12.2 °F -4.3 °F 3.6 °F 68% 30.24 in 10.0 mi West 16.1 mph 23.0 mph N/A   Clear
1:35 AM 12.4 °F -2.3 °F 4.3 °F 70% 30.24 in 10.0 mi West 12.7 mph 20.7 mph N/A   Clear
1:55 AM 12.2 °F -2.5 °F 4.8 °F 72% 30.24 in 10.0 mi West 12.7 mph 20.7 mph N/A   Clear
2:14 AM 12.4 °F -2.9 °F 5.2 °F 73% 30.25 in 10.0 mi West 13.8 mph 19.6 mph N/A   Clear
2:35 AM 12.6 °F -3.8 °F 5.9 °F 75% 30.25 in 10.0 mi West 16.1 mph 23.0 mph N/A   Clear
2:55 AM 12.9 °F -3.9 °F 5.9 °F 74% 30.25 in 10.0 mi West 17.3 mph 21.9 mph N/A   Clear
3:14 AM 13.1 °F -3.7 °F 6.3 °F 74% 30.26 in 10.0 mi West 17.3 mph 25.3 mph N/A   Clear
3:35 AM 13.1 °F -3.7 °F 5.9 °F 73% 30.26 in 10.0 mi West 17.3 mph 24.2 mph N/A   Clear
3:55 AM 13.5 °F -0.9 °F 5.7 °F 71% 30.26 in 10.0 mi West 12.7 mph 24.2 mph N/A   Clear
4:14 AM 13.5 °F -0.9 °F 5.9 °F 72% 30.26 in 10.0 mi West 12.7 mph 21.9 mph N/A   Scattered Clouds
4:35 AM 13.6 °F -0.7 °F 5.9 °F 71% 30.25 in 10.0 mi West 12.7 mph 18.4 mph N/A   Scattered Clouds
4:55 AM 13.6 °F 0.0 °F 6.4 °F 73% 30.25 in 10.0 mi West 11.5 mph 18.4 mph N/A   Mostly Cloudy
5:14 AM 14.0 °F 1.2 °F 5.9 °F 70% 30.25 in 10.0 mi West 10.4 mph 18.4 mph N/A   Overcast
5:35 AM 14.0 °F 2.0 °F 5.2 °F 68% 30.25 in 10.0 mi WNW 9.2 mph 18.4 mph N/A   Mostly Cloudy
5:55 AM 14.0 °F 2.0 °F 5.0 °F 67% 30.25 in 10.0 mi West 9.2 mph - N/A   Overcast
6:14 AM 14.5 °F -1.3 °F 3.2 °F 61% 30.25 in 10.0 mi West 16.1 mph - N/A   Overcast
6:35 AM 14.5 °F -1.8 °F 2.3 °F 58% 30.25 in 10.0 mi West 17.3 mph 23.0 mph N/A   Overcast
6:55 AM 14.9 °F 0.3 °F 2.5 °F 58% 30.25 in 10.0 mi West 13.8 mph 18.4 mph N/A   Overcast
7:54 AM 16.2 °F 3.2 °F 3.4 °F 57% 30.23 in 10.0 mi WSW 11.5 mph 18.4 mph N/A   Overcast
8:15 AM 16.3 °F 2.7 °F 3.9 °F 58% 30.23 in 10.0 mi WSW 12.7 mph 19.6 mph N/A   Overcast
8:35 AM 16.7 °F 2.6 °F 5.2 °F 61% 30.22 in 10.0 mi WSW 13.8 mph 19.6 mph N/A   Overcast
8:54 AM 16.5 °F 5.1 °F 2.5 °F 54% 30.22 in 10.0 mi WSW 9.2 mph 17.3 mph N/A   Overcast
9:15 AM 16.5 °F 8.1 °F 5.4 °F 62% 30.22 in 10.0 mi WSW 5.8 mph - N/A   Overcast
9:35 AM 16.9 °F 9.8 °F 7.2 °F 66% 30.22 in 10.0 mi SW 4.6 mph 17.3 mph N/A   Overcast
9:54 AM 17.1 °F 5.8 °F 7.5 °F 66% 30.22 in 10.0 mi SW 9.2 mph - N/A   Overcast
10:15 AM 16.9 °F 6.4 °F 7.3 °F 66% 30.22 in 10.0 mi South 8.1 mph - N/A   Overcast
10:35 AM 16.2 °F 6.5 °F 8.4 °F 72% 30.21 in 7.0 mi South 6.9 mph 17.3 mph N/A   Overcast
10:54 AM 15.8 °F 4.2 °F 11.1 °F 82% 30.20 in 1.2 mi South 9.2 mph 16.1 mph N/A Snow Light Snow
11:15 AM 15.8 °F 2.7 °F 11.7 °F 84% 30.17 in 0.8 mi South 11.5 mph 18.4 mph N/A Snow Light Snow
11:35 AM 15.8 °F 1.4 °F 11.1 °F 82% 30.15 in 1.5 mi South 13.8 mph 20.7 mph N/A Snow Light Snow
11:54 AM 16.0 °F 2.9 °F 10.2 °F 78% 30.14 in 3.0 mi South 11.5 mph 20.7 mph N/A Snow Light Snow
12:15 PM 16.3 °F 3.4 °F 10.4 °F 77% 30.12 in 2.5 mi South 11.5 mph 20.7 mph N/A Snow Light Snow
12:34 PM 16.3 °F 2.1 °F 10.9 °F 79% 30.09 in 2.0 mi South 13.8 mph 21.9 mph N/A Snow Light Snow
12:54 PM 16.2 °F 4.7 °F 11.7 °F 82% 30.07 in 1.2 mi South 9.2 mph 18.4 mph N/A Snow Light Snow
1:15 PM 16.3 °F 2.7 °F 12.6 °F 85% 30.05 in 0.5 mi South 12.7 mph 19.6 mph N/A Snow Snow
1:34 PM 16.3 °F 5.7 °F 12.6 °F 85% 30.04 in 0.5 mi South 8.1 mph 17.3 mph N/A Snow Snow
1:54 PM 16.5 °F 5.1 °F 12.7 °F 85% 30.04 in 0.5 mi SSE 9.2 mph 18.4 mph N/A Snow Snow
2:15 PM 16.5 °F 6.0 °F 12.7 °F 85% 30.02 in 0.8 mi SSE 8.1 mph - N/A Snow Light Snow
2:34 PM 16.5 °F 5.1 °F 12.9 °F 86% 29.99 in 0.5 mi SE 9.2 mph - N/A Snow Snow
2:55 PM 16.7 °F 6.2 °F 13.1 °F 86% 29.97 in 0.8 mi SSE 8.1 mph 16.1 mph N/A Snow Light Snow
3:15 PM 17.4 °F 7.1 °F 13.8 °F 86% 29.96 in 1.0 mi SE 8.1 mph 16.1 mph N/A Snow Light Snow
3:34 PM 17.4 °F 6.2 °F 13.6 °F 85% 29.95 in 1.0 mi SE 9.2 mph 17.3 mph 0.01 in Snow Light Snow
3:55 PM 17.6 °F 5.7 °F 14.0 °F 86% 29.92 in 1.0 mi SE 10.4 mph 19.6 mph 0.01 in Snow Light Snow
4:15 PM 18.0 °F 6.1 °F 14.0 °F 84% 29.91 in 1.5 mi SE 10.4 mph 17.3 mph N/A Snow Light Snow
4:34 PM 18.0 °F 6.9 °F 13.8 °F 84% 29.89 in 2.0 mi SE 9.2 mph 19.6 mph N/A Snow Light Snow
4:55 PM 18.0 °F 6.1 °F 13.6 °F 83% 29.87 in 2.0 mi SE 10.4 mph 20.7 mph N/A Snow Light Snow
5:14 PM 18.0 °F 5.4 °F 13.8 °F 84% 29.86 in 1.8 mi SE 11.5 mph 20.7 mph N/A Snow Light Snow
5:35 PM 18.1 °F 5.6 °F 14.0 °F 84% 29.85 in 2.0 mi SE 11.5 mph 18.4 mph N/A Snow Light Snow
5:55 PM 18.5 °F 8.4 °F 14.5 °F 85% 29.84 in 5.0 mi SE 8.1 mph 17.3 mph N/A Snow Light Snow
6:14 PM 18.9 °F 9.8 °F 14.9 °F 85% 29.82 in 10.0 mi SE 6.9 mph - N/A   Overcast
6:35 PM 19.8 °F 7.7 °F 15.8 °F 85% 29.81 in 10.0 mi SSE 11.5 mph 18.4 mph N/A   Overcast
6:55 PM 20.1 °F 8.1 °F 16.3 °F 85% 29.79 in 10.0 mi SE 11.5 mph 19.6 mph N/A   Overcast
7:14 PM 20.7 °F 10.2 °F 16.7 °F 85% 29.78 in 10.0 mi SSE 9.2 mph 17.3 mph N/A   Overcast
7:35 PM 21.6 °F 12.1 °F 17.8 °F 85% 29.77 in 10.0 mi SSE 8.1 mph - N/A Snow Light Snow
7:54 PM 21.9 °F 13.4 °F 18.3 °F 86% 29.76 in 10.0 mi South 6.9 mph - N/A   Overcast
8:14 PM 23.4 °F 18.9 °F 19.6 °F 85% 29.75 in 10.0 mi SSE 3.5 mph - N/A   Overcast
8:35 PM 23.2 °F - 19.8 °F 87% 29.75 in 7.0 mi Calm Calm - N/A Snow Light Snow
8:54 PM 23.7 °F - 20.5 °F 87% 29.74 in 10.0 mi Calm Calm - N/A   Overcast
9:15 PM 23.5 °F 19.1 °F 20.3 °F 87% 29.73 in 10.0 mi NNE 3.5 mph - N/A   Overcast
9:35 PM 23.5 °F - 20.5 °F 88% 29.73 in 5.0 mi Calm Calm - N/A Snow Light Snow
9:54 PM 23.7 °F 17.8 °F 21.2 °F 90% 29.73 in 7.0 mi North 4.6 mph - N/A Snow Light Snow
10:15 PM 24.8 °F 17.9 °F 22.6 °F 91% 29.72 in 2.0 mi NNE 5.8 mph - N/A Snow Light Snow
10:35 PM 24.8 °F 16.9 °F 23.0 °F 93% 29.72 in 4.0 mi NNE 6.9 mph - N/A   Overcast
10:54 PM 25.3 °F 19.7 °F 23.0 °F 91% 29.72 in 10.0 mi North 4.6 mph - N/A   Overcast
11:15 PM 25.2 °F 20.9 °F 23.0 °F 91% 29.71 in 10.0 mi NNE 3.5 mph - N/A   Overcast
11:35 PM 25.3 °F - 23.0 °F 91% 29.71 in 10.0 mi Calm Calm - N/A   Overcast
11:54 PM 25.2 °F - 23.0 °F 91% 29.71 in 7.0 mi Calm Calm - N/A Snow Light Snow